Time;durP1;ratioP1;P1;durP2;ratioP2;P2;SDS_P1;SDS_P2;PMS_P1;PMS_P2;Temp;Humidity;BMP_temperature;BMP_pressure;BME280_temperature;BME280_humidity;BME280_pressure;Samples;Min_cycle;Max_cycle;Signal;HPM_P1;HPM_P2
2022/01/09 00:04:42;;;;;;;2.00;1.40;;;4.90;99.90;;;;;;12830850;23;20180;-76
2022/01/09 00:09:44;;;;;;;2.67;1.10;;;4.90;99.90;;;;;;12857390;23;20215;-78
2022/01/09 00:14:45;;;;;;;2.10;1.10;;;5.00;99.90;;;;;;12857885;23;20264;-77
2022/01/09 00:19:46;;;;;;;1.67;0.60;;;5.10;99.90;;;;;;12830969;23;20204;-77
2022/01/09 00:24:47;;;;;;;0.73;0.53;;;5.20;99.90;;;;;;12827616;23;20211;-76
2022/01/09 00:29:47;;;;;;;2.23;0.90;;;5.30;99.90;;;;;;12840237;23;20548;-77
2022/01/09 00:34:48;;;;;;;1.07;0.80;;;5.30;99.90;;;;;;12830757;23;20204;-76
2022/01/09 00:39:48;;;;;;;0.80;0.70;;;5.30;99.90;;;;;;12829929;23;20233;-75
2022/01/09 00:44:49;;;;;;;2.60;1.10;;;5.30;99.90;;;;;;12856959;23;20224;-77
2022/01/09 00:49:50;;;;;;;1.40;0.87;;;5.20;99.90;;;;;;12829279;23;20647;-76
2022/01/09 00:54:50;;;;;;;2.80;1.47;;;5.10;99.90;;;;;;12855447;23;20211;-76
2022/01/09 00:59:54;;;;;;;2.07;1.10;;;5.00;99.90;;;;;;12829504;23;20679;-76
2022/01/09 01:04:54;;;;;;;3.47;1.07;;;5.00;99.90;;;;;;12830468;23;20576;-76
2022/01/09 01:09:57;;;;;;;3.10;1.30;;;4.90;99.90;;;;;;12856362;23;20216;-77
2022/01/09 01:15:00;;;;;;;4.10;1.00;;;4.90;99.90;;;;;;12828394;23;20283;-77
2022/01/09 01:20:01;;;;;;;2.30;1.00;;;5.00;99.90;;;;;;12853570;23;20210;-77
2022/01/09 01:25:04;;;;;;;1.70;1.40;;;5.00;99.90;;;;;;12855364;23;20747;-76
2022/01/09 01:30:07;;;;;;;1.80;0.97;;;5.00;99.90;;;;;;12852235;23;20195;-76
2022/01/09 01:35:09;;;;;;;2.00;0.87;;;5.00;99.90;;;;;;12855583;23;20152;-76
2022/01/09 01:40:17;;;;;;;1.47;1.07;;;5.00;99.90;;;;;;12828252;23;20192;-77
2022/01/09 01:45:18;;;;;;;1.20;1.03;;;5.10;99.90;;;;;;12829139;23;20299;-76
2022/01/09 01:50:19;;;;;;;1.60;1.00;;;5.00;99.90;;;;;;12828293;23;20164;-76
2022/01/09 01:55:20;;;;;;;2.63;1.33;;;5.00;99.90;;;;;;12854270;23;20176;-76
2022/01/09 02:00:21;;;;;;;1.40;1.30;;;5.10;99.90;;;;;;12846028;23;20180;-77
2022/01/09 02:05:21;;;;;;;1.77;1.30;;;5.10;99.90;;;;;;12827035;23;20250;-76
2022/01/09 02:10:22;;;;;;;2.00;1.30;;;5.10;99.90;;;;;;12854969;23;20155;-76
2022/01/09 02:15:30;;;;;;;2.70;1.53;;;5.10;99.90;;;;;;12827477;23;20220;-76
2022/01/09 02:20:31;;;;;;;2.33;1.40;;;5.10;99.90;;;;;;12853434;23;20207;-76
2022/01/09 02:25:36;;;;;;;1.80;1.63;;;5.10;99.90;;;;;;12860317;23;20644;-76
2022/01/09 02:30:37;;;;;;;9.90;2.60;;;5.10;99.90;;;;;;12859879;23;20251;-77
2022/01/09 02:35:38;;;;;;;2.60;2.10;;;5.20;99.90;;;;;;12833813;23;20195;-77
2022/01/09 02:40:38;;;;;;;2.07;1.87;;;5.10;99.90;;;;;;12833360;23;20237;-77
2022/01/09 02:45:40;;;;;;;2.60;2.13;;;5.20;99.90;;;;;;12860464;23;20258;-76
2022/01/09 02:50:50;;;;;;;3.43;2.60;;;5.20;99.90;;;;;;12832625;23;20227;-75
2022/01/09 02:55:54;;;;;;;3.23;2.47;;;5.20;99.90;;;;;;12833165;23;20310;-76
2022/01/09 03:00:55;;;;;;;2.87;2.53;;;5.30;99.90;;;;;;12835354;23;20205;-75
2022/01/09 03:05:55;;;;;;;4.70;2.57;;;5.20;99.90;;;;;;12858860;23;20200;-76
2022/01/09 03:10:56;;;;;;;3.07;2.60;;;5.30;99.90;;;;;;12858327;23;20214;-77
2022/01/09 03:16:00;;;;;;;2.50;2.27;;;5.30;99.90;;;;;;12832924;23;20922;-77
2022/01/09 03:21:01;;;;;;;2.67;2.37;;;5.20;99.90;;;;;;12858814;23;20278;-75
2022/01/09 03:26:02;;;;;;;1.87;1.70;;;5.30;99.90;;;;;;12831589;23;20211;-75
2022/01/09 03:31:03;;;;;;;2.43;1.73;;;5.30;99.90;;;;;;12831580;23;20219;-76
2022/01/09 03:36:04;;;;;;;2.50;1.50;;;5.30;99.90;;;;;;12829744;23;20204;-76
2022/01/09 03:41:04;;;;;;;2.97;1.30;;;5.30;99.90;;;;;;12827939;22;20281;-76
2022/01/09 03:46:05;;;;;;;0.93;0.77;;;5.30;99.90;;;;;;12827319;23;20204;-76
2022/01/09 03:51:06;;;;;;;0.80;0.80;;;5.30;99.90;;;;;;12853529;23;20200;-76
2022/01/09 03:56:06;;;;;;;2.30;0.70;;;5.30;99.90;;;;;;12855935;23;20215;-76
2022/01/09 04:01:08;;;;;;;0.53;0.53;;;5.30;99.90;;;;;;12852804;23;20306;-76
2022/01/09 04:06:08;;;;;;;0.50;0.50;;;5.30;99.90;;;;;;12827930;23;20216;-75
2022/01/09 04:11:10;;;;;;;0.30;0.30;;;5.20;99.90;;;;;;12827793;23;20965;-77
2022/01/09 04:16:11;;;;;;;0.60;0.20;;;5.20;99.90;;;;;;12828416;23;20199;-76
2022/01/09 04:21:11;;;;;;;0.30;0.30;;;5.10;99.90;;;;;;12854378;23;20322;-76
2022/01/09 04:26:12;;;;;;;1.23;0.20;;;5.00;99.90;;;;;;12827962;23;20219;-76
2022/01/09 04:31:15;;;;;;;0.27;0.20;;;4.90;99.90;;;;;;12826824;23;20407;-75
2022/01/09 04:36:15;;;;;;;0.60;0.13;;;4.90;99.90;;;;;;12853045;23;20196;-76
2022/01/09 04:41:16;;;;;;;0.20;0.20;;;4.90;99.90;;;;;;12854019;23;20215;-77
2022/01/09 04:46:24;;;;;;;0.70;0.13;;;4.80;99.90;;;;;;12827405;23;20650;-77
2022/01/09 04:51:28;;;;;;;0.90;0.23;;;4.80;99.90;;;;;;12827139;23;20196;-75
2022/01/09 04:56:28;;;;;;;0.73;0.40;;;4.80;99.90;;;;;;12854049;23;20203;-76
2022/01/09 05:01:29;;;;;;;0.10;0.10;;;4.80;99.90;;;;;;12827497;23;20291;-76
2022/01/09 05:06:29;;;;;;;0.40;0.20;;;4.80;99.90;;;;;;12854244;23;20200;-76
2022/01/09 05:11:30;;;;;;;0.20;0.17;;;4.70;99.90;;;;;;12827302;23;20203;-76
2022/01/09 05:16:34;;;;;;;0.10;0.10;;;4.70;99.90;;;;;;12853679;23;20338;-76
2022/01/09 05:21:34;;;;;;;0.27;0.27;;;4.70;99.90;;;;;;12826672;23;20208;-76
2022/01/09 05:26:35;;;;;;;0.60;0.13;;;4.70;99.90;;;;;;12853692;23;20254;-76
2022/01/09 05:31:36;;;;;;;1.53;0.50;;;4.70;99.90;;;;;;12853739;23;20536;-77
2022/01/09 05:36:36;;;;;;;1.97;0.50;;;4.70;99.90;;;;;;12825680;23;20238;-75
2022/01/09 05:41:39;;;;;;;0.80;0.50;;;4.60;99.90;;;;;;12825166;23;20525;-76
2022/01/09 05:46:39;;;;;;;4.30;0.50;;;4.70;99.90;;;;;;12854110;23;20714;-76
2022/01/09 05:51:40;;;;;;;3.80;0.67;;;4.60;99.90;;;;;;12825494;23;20207;-76
2022/01/09 05:56:40;;;;;;;0.67;0.57;;;4.60;99.90;;;;;;12826225;23;20214;-76
2022/01/09 06:01:41;;;;;;;4.63;0.87;;;4.60;99.90;;;;;;12826606;23;20219;-76
2022/01/09 06:06:42;;;;;;;4.07;0.90;;;4.60;99.90;;;;;;12827044;23;20195;-77
2022/01/09 06:11:42;;;;;;;3.93;1.00;;;4.60;99.90;;;;;;12852988;23;20582;-75
2022/01/09 06:16:43;;;;;;;4.43;0.93;;;4.60;99.90;;;;;;12826783;23;20199;-76
2022/01/09 06:21:44;;;;;;;3.30;0.97;;;4.70;99.90;;;;;;12825639;23;20218;-76
2022/01/09 06:26:48;;;;;;;6.43;1.20;;;4.70;99.90;;;;;;12826869;23;20219;-76
2022/01/09 06:31:48;;;;;;;5.60;1.30;;;4.70;99.90;;;;;;12826385;23;20648;-75
2022/01/09 06:36:49;;;;;;;6.13;1.37;;;4.70;99.90;;;;;;12853335;23;20263;-76
2022/01/09 06:41:50;;;;;;;5.83;1.20;;;4.70;99.90;;;;;;12851909;23;20228;-76
2022/01/09 06:46:51;;;;;;;4.37;1.20;;;4.70;99.90;;;;;;12825652;23;20200;-75
2022/01/09 06:51:51;;;;;;;4.90;1.10;;;4.70;99.90;;;;;;12851603;23;20207;-75
2022/01/09 06:56:52;;;;;;;9.50;1.07;;;4.70;99.90;;;;;;12853216;23;20706;-76
2022/01/09 07:01:52;;;;;;;6.47;1.10;;;4.80;99.90;;;;;;12825003;23;20207;-75
2022/01/09 07:06:56;;;;;;;4.67;1.10;;;4.80;99.90;;;;;;12826326;23;20591;-77
2022/01/09 07:11:56;;;;;;;3.67;1.40;;;4.80;99.90;;;;;;12828279;23;20208;-77
2022/01/09 07:16:57;;;;;;;5.23;1.47;;;4.80;99.90;;;;;;12827908;23;20215;-76
2022/01/09 07:21:58;;;;;;;5.37;1.53;;;4.90;99.90;;;;;;12829720;23;20208;-76
2022/01/09 07:26:59;;;;;;;3.63;1.60;;;4.90;99.90;;;;;;12856389;23;20243;-77
2022/01/09 07:32:00;;;;;;;5.23;1.17;;;5.00;99.90;;;;;;12829723;23;20574;-76
2022/01/09 07:37:01;;;;;;;5.03;1.63;;;5.10;99.90;;;;;;12829357;23;20203;-77
2022/01/09 07:42:01;;;;;;;3.27;1.10;;;5.10;99.90;;;;;;12829601;23;20231;-75
2022/01/09 07:47:03;;;;;;;6.13;1.50;;;5.20;99.90;;;;;;12855844;23;20200;-76
2022/01/09 07:52:04;;;;;;;5.80;1.50;;;5.20;99.90;;;;;;12855288;23;20203;-76
2022/01/09 07:57:05;;;;;;;10.67;1.60;;;5.30;99.90;;;;;;12828293;23;20206;-77
2022/01/09 08:02:06;;;;;;;2.63;1.17;;;5.30;99.90;;;;;;12829379;23;20214;-77
2022/01/09 08:07:07;;;;;;;7.97;1.80;;;5.30;99.90;;;;;;12829163;23;20207;-76
2022/01/09 08:12:10;;;;;;;6.00;1.70;;;5.40;99.90;;;;;;12829538;23;20670;-76
2022/01/09 08:17:14;;;;;;;9.00;1.93;;;5.40;99.90;;;;;;12827903;23;20203;-77
2022/01/09 08:22:15;;;;;;;6.50;1.50;;;5.40;99.90;;;;;;12829461;23;20244;-76
2022/01/09 08:27:15;;;;;;;6.60;1.63;;;5.40;99.90;;;;;;12854906;23;20281;-77
2022/01/09 08:32:16;;;;;;;7.60;1.90;;;5.50;99.90;;;;;;12856627;23;20666;-77
2022/01/09 08:37:17;;;;;;;6.20;1.77;;;5.50;99.90;;;;;;12855685;23;20215;-77
2022/01/09 08:42:18;;;;;;;6.00;1.67;;;5.50;99.90;;;;;;12828994;23;20214;-77
2022/01/09 08:47:22;;;;;;;4.07;1.47;;;5.60;99.90;;;;;;12829822;23;20204;-76
2022/01/09 08:52:23;;;;;;;9.30;2.30;;;5.60;99.90;;;;;;12828299;23;20200;-76
2022/01/09 08:57:25;;;;;;;8.70;2.00;;;5.70;99.90;;;;;;12825951;23;20234;-76
2022/01/09 09:02:26;;;;;;;7.73;2.20;;;5.70;99.90;;;;;;12855681;23;20211;-76
2022/01/09 09:07:26;;;;;;;7.83;2.20;;;5.70;99.90;;;;;;12854698;23;20211;-76
2022/01/09 09:12:27;;;;;;;10.73;2.20;;;5.80;99.90;;;;;;12827766;23;20208;-76
2022/01/09 09:17:28;;;;;;;7.97;1.97;;;5.80;99.90;;;;;;12828668;23;20583;-76
2022/01/09 09:22:29;;;;;;;7.73;1.80;;;5.90;99.90;;;;;;12854966;23;20227;-76
2022/01/09 09:27:35;;;;;;;7.07;1.60;;;5.90;99.90;;;;;;12814252;23;20667;-76
2022/01/09 09:32:36;;;;;;;4.10;1.50;;;6.10;99.90;;;;;;12813514;23;20203;-77
2022/01/09 09:37:38;;;;;;;6.10;1.50;;;6.30;99.90;;;;;;12830057;23;20203;-78
2022/01/09 09:42:39;;;;;;;4.93;1.60;;;6.60;99.90;;;;;;12830979;23;20227;-77
2022/01/09 09:47:41;;;;;;;4.53;1.50;;;6.80;99.90;;;;;;12831213;23;20222;-77
2022/01/09 09:52:46;;;;;;;7.50;1.63;;;7.10;99.90;;;;;;12856854;23;20739;-77
2022/01/09 09:57:47;;;;;;;2.87;1.23;;;7.20;99.90;;;;;;12831066;23;20508;-78
2022/01/09 10:03:01;;;;;;;6.67;1.77;;;7.20;99.90;;;;;;12827607;23;20303;-77
2022/01/09 10:08:15;;;;;;;6.30;1.80;;;7.30;99.90;;;;;;12828591;23;20201;-76
2022/01/09 10:13:17;;;;;;;8.67;1.87;;;7.50;99.90;;;;;;12846968;23;20197;-76
2022/01/09 10:18:39;;;;;;;4.30;1.50;;;7.70;99.90;;;;;;12826940;23;20204;-76
2022/01/09 10:24:15;;;;;;;8.67;2.17;;;7.60;99.90;;;;;;12837521;23;20205;-77
2022/01/09 10:29:20;;;;;;;5.73;1.80;;;7.60;99.90;;;;;;12670502;23;20259;-76
2022/01/09 10:34:20;;;;;;;8.37;1.70;;;7.80;99.90;;;;;;12826402;23;20228;-76
2022/01/09 10:39:24;;;;;;;5.73;1.60;;;8.30;99.90;;;;;;12819058;23;20221;-77
2022/01/09 10:44:35;;;;;;;5.33;1.53;;;8.40;99.90;;;;;;12828117;23;20198;-77
2022/01/09 10:49:48;;;;;;;9.33;1.90;;;8.40;99.90;;;;;;12821385;23;20204;-77
2022/01/09 10:54:51;;;;;;;7.83;2.10;;;8.30;99.90;;;;;;12834514;23;20198;-76
2022/01/09 10:59:52;;;;;;;5.70;1.80;;;8.20;99.90;;;;;;12843585;23;20286;-76
2022/01/09 11:04:53;;;;;;;7.00;2.03;;;8.10;99.90;;;;;;12832843;23;20249;-77
2022/01/09 11:09:55;;;;;;;6.10;1.93;;;7.90;99.90;;;;;;12831971;23;20685;-76
2022/01/09 11:15:03;;;;;;;9.90;1.77;;;7.70;99.90;;;;;;12833139;23;20200;-77
2022/01/09 11:20:04;;;;;;;6.20;1.60;;;7.50;99.90;;;;;;12830726;23;20696;-76
2022/01/09 11:25:23;;;;;;;6.53;1.73;;;7.60;99.90;;;;;;12831703;23;20200;-76
2022/01/09 11:30:52;;;;;;;7.37;1.93;;;7.70;99.90;;;;;;12830173;23;20201;-77
2022/01/09 11:35:55;;;;;;;6.30;2.20;;;7.80;99.90;;;;;;12858097;23;20269;-77
2022/01/09 11:41:13;;;;;;;5.53;1.73;;;7.80;99.90;;;;;;12830766;23;20205;-77
2022/01/09 11:46:14;;;;;;;5.50;1.70;;;7.60;99.90;;;;;;12830863;23;20596;-77
2022/01/09 11:51:15;;;;;;;9.17;1.87;;;7.60;99.90;;;;;;12830383;23;20242;-77
2022/01/09 11:56:54;;;;;;;6.70;1.50;;;7.60;99.90;;;;;;12830734;23;20228;-77
2022/01/09 12:02:00;;;;;;;7.03;1.50;;;7.70;99.90;;;;;;12833925;23;20793;-77
2022/01/09 12:07:04;;;;;;;6.47;1.80;;;7.80;99.90;;;;;;12858973;23;20210;-76
2022/01/09 12:12:21;;;;;;;5.57;1.60;;;7.80;99.90;;;;;;12831685;23;20207;-77
2022/01/09 12:17:21;;;;;;;7.80;1.80;;;7.60;99.90;;;;;;12813713;23;20533;-77
2022/01/09 12:22:48;;;;;;;3.83;1.50;;;7.60;99.90;;;;;;12829039;23;20297;-79
2022/01/09 12:27:54;;;;;;;5.23;1.93;;;7.40;99.90;;;;;;12830155;23;20256;-76
2022/01/09 12:32:56;;;;;;;5.07;1.37;;;7.30;99.90;;;;;;12829485;23;20203;-77
2022/01/09 12:38:00;;;;;;;7.83;1.90;;;7.20;99.90;;;;;;12829120;23;20197;-77
2022/01/09 12:43:03;;;;;;;4.90;1.53;;;7.20;99.90;;;;;;12857445;23;20222;-76
2022/01/09 12:48:05;;;;;;;5.57;1.43;;;7.20;99.90;;;;;;12831724;23;20199;-78
2022/01/09 12:53:29;;;;;;;8.43;1.70;;;7.20;99.90;;;;;;12832507;23;20234;-77
2022/01/09 12:58:33;;;;;;;9.23;1.50;;;7.20;99.90;;;;;;12857647;23;20260;-77
2022/01/09 13:03:34;;;;;;;7.37;1.87;;;7.30;99.90;;;;;;12831433;23;20624;-76
2022/01/09 13:08:38;;;;;;;7.20;2.00;;;7.40;99.90;;;;;;12829219;23;20276;-77
2022/01/09 13:13:43;;;;;;;8.80;2.07;;;7.60;99.90;;;;;;12831507;23;20201;-78
2022/01/09 13:18:49;;;;;;;9.60;1.80;;;7.80;99.90;;;;;;12833786;23;20207;-77
2022/01/09 13:24:20;;;;;;;8.70;1.70;;;7.90;99.90;;;;;;12830771;23;20666;-77
2022/01/09 13:29:30;;;;;;;5.30;1.73;;;8.00;99.90;;;;;;12829953;23;20665;-76
2022/01/09 13:34:32;;;;;;;5.90;1.70;;;7.90;99.90;;;;;;12832388;23;20251;-77
2022/01/09 13:39:33;;;;;;;5.47;1.63;;;7.90;99.90;;;;;;12835487;23;20561;-77
2022/01/09 13:44:44;;;;;;;7.27;2.03;;;7.80;99.90;;;;;;12833529;23;20203;-77
2022/01/09 13:49:48;;;;;;;4.27;1.10;;;7.80;99.90;;;;;;12828464;23;20539;-78
2022/01/09 13:55:10;;;;;;;5.87;1.57;;;7.60;99.90;;;;;;12829633;23;20251;-77
2022/01/09 14:00:12;;;;;;;7.00;1.60;;;7.40;99.90;;;;;;12854005;23;20200;-77
2022/01/09 14:05:18;;;;;;;8.60;1.83;;;7.40;99.90;;;;;;12829105;23;20296;-77
2022/01/09 14:10:35;;;;;;;6.80;1.40;;;7.30;99.90;;;;;;12828214;23;20285;-76
2022/01/09 14:15:38;;;;;;;5.23;1.50;;;7.30;99.90;;;;;;12855762;23;20409;-77
2022/01/09 14:20:41;;;;;;;4.20;1.57;;;7.40;99.90;;;;;;12853510;23;20212;-76
2022/01/09 14:25:46;;;;;;;9.90;1.70;;;7.40;99.90;;;;;;12855000;23;20255;-76
2022/01/09 14:30:47;;;;;;;5.97;1.50;;;7.30;99.90;;;;;;12857044;23;20203;-77
2022/01/09 14:35:53;;;;;;;4.83;1.50;;;7.30;99.90;;;;;;12832028;23;20200;-77
2022/01/09 14:41:06;;;;;;;6.30;1.73;;;7.30;99.90;;;;;;12828289;23;20264;-78
2022/01/09 14:46:07;;;;;;;6.30;1.60;;;7.30;99.90;;;;;;12856670;23;20204;-77
2022/01/09 14:51:10;;;;;;;6.43;1.90;;;7.30;99.90;;;;;;12855425;23;20648;-76
2022/01/09 14:56:13;;;;;;;7.23;1.83;;;7.10;99.90;;;;;;12829045;23;20711;-76
2022/01/09 15:01:13;;;;;;;5.10;1.60;;;7.00;99.90;;;;;;12827803;23;20231;-78
2022/01/09 15:06:16;;;;;;;6.63;1.53;;;6.90;99.90;;;;;;12830407;23;20216;-77
2022/01/09 15:11:17;;;;;;;7.63;1.40;;;6.90;99.90;;;;;;12829148;23;20200;-76
2022/01/09 15:16:17;;;;;;;6.63;1.70;;;6.80;99.90;;;;;;12831611;23;20200;-77
2022/01/09 15:21:18;;;;;;;4.30;1.60;;;6.80;99.90;;;;;;12834795;23;20216;-77
2022/01/09 15:26:19;;;;;;;6.17;1.57;;;6.70;99.90;;;;;;12828892;23;20208;-77
2022/01/09 15:31:19;;;;;;;4.83;2.07;;;6.60;99.90;;;;;;12828041;23;20539;-77
2022/01/09 15:36:20;;;;;;;3.33;1.40;;;6.60;99.90;;;;;;12833674;23;20234;-77
2022/01/09 15:41:23;;;;;;;8.27;1.90;;;6.60;99.90;;;;;;12834065;23;20228;-77
2022/01/09 15:46:24;;;;;;;5.40;1.60;;;6.60;99.90;;;;;;12833325;23;20466;-77
2022/01/09 15:51:26;;;;;;;5.90;1.70;;;6.50;99.90;;;;;;12860722;23;20227;-78
2022/01/09 15:56:28;;;;;;;4.47;1.80;;;6.40;99.90;;;;;;12833074;23;20728;-78
2022/01/09 16:01:29;;;;;;;5.57;1.87;;;6.40;99.90;;;;;;12831784;23;20207;-76
2022/01/09 16:06:31;;;;;;;7.60;1.80;;;6.30;99.90;;;;;;12832571;23;20207;-76
2022/01/09 16:11:36;;;;;;;5.40;1.90;;;6.30;99.90;;;;;;12837073;23;20200;-77
2022/01/09 16:16:37;;;;;;;7.30;1.63;;;6.30;99.90;;;;;;12860644;23;20203;-77
2022/01/09 16:21:38;;;;;;;6.50;1.80;;;6.20;99.90;;;;;;12806210;23;20741;-76
2022/01/09 16:26:39;;;;;;;6.03;2.10;;;6.20;99.90;;;;;;12830627;23;20212;-77
2022/01/09 16:31:41;;;;;;;7.03;1.97;;;6.20;99.90;;;;;;12816459;23;20196;-77
2022/01/09 16:36:43;;;;;;;5.03;1.90;;;6.10;99.90;;;;;;12834003;23;20542;-77
2022/01/09 16:41:46;;;;;;;6.80;2.00;;;6.10;99.90;;;;;;12835095;23;20326;-77
2022/01/09 16:46:47;;;;;;;7.83;1.83;;;6.10;99.90;;;;;;12833407;23;20233;-77
2022/01/09 16:51:48;;;;;;;5.83;2.40;;;6.10;99.90;;;;;;12833123;23;20207;-77
2022/01/09 16:56:49;;;;;;;6.03;1.97;;;6.10;99.90;;;;;;12832604;23;20199;-76
2022/01/09 17:01:50;;;;;;;5.90;2.20;;;6.10;99.90;;;;;;12830835;23;20247;-78
2022/01/09 17:06:51;;;;;;;12.20;3.70;;;6.00;99.90;;;;;;12832009;23;20204;-77
2022/01/09 17:11:52;;;;;;;3.63;2.10;;;6.00;99.90;;;;;;12832662;23;20282;-77
2022/01/09 17:16:52;;;;;;;4.00;1.93;;;5.90;99.90;;;;;;12830222;23;20207;-77
2022/01/09 17:21:53;;;;;;;10.17;1.90;;;5.70;99.90;;;;;;12855828;23;20275;-76
2022/01/09 17:26:54;;;;;;;14.47;2.70;;;5.50;99.90;;;;;;12831657;23;20215;-76
2022/01/09 17:31:55;;;;;;;9.00;2.53;;;5.30;99.90;;;;;;12858050;23;20219;-77
2022/01/09 17:36:55;;;;;;;4.33;2.10;;;5.20;99.90;;;;;;12830409;23;20274;-76
2022/01/09 17:41:56;;;;;;;3.83;1.83;;;5.20;99.90;;;;;;12830518;23;20211;-77
2022/01/09 17:46:56;;;;;;;4.17;1.97;;;5.20;99.90;;;;;;12856366;23;20210;-77
2022/01/09 17:51:57;;;;;;;12.30;4.40;;;5.20;99.90;;;;;;12830527;23;20398;-77
2022/01/09 17:56:58;;;;;;;13.17;6.27;;;5.30;99.90;;;;;;12827865;23;20204;-77
2022/01/09 18:01:58;;;;;;;6.27;2.70;;;5.30;99.90;;;;;;12830046;23;20212;-77
2022/01/09 18:07:00;;;;;;;6.47;3.73;;;5.30;99.90;;;;;;12829375;23;20836;-77
2022/01/09 18:12:02;;;;;;;8.33;3.67;;;5.30;99.90;;;;;;12855934;23;20203;-77
2022/01/09 18:17:03;;;;;;;4.83;2.90;;;5.30;99.90;;;;;;12855410;23;20294;-77
2022/01/09 18:22:05;;;;;;;11.33;4.50;;;5.30;99.90;;;;;;12828330;23;20263;-76
2022/01/09 18:27:05;;;;;;;9.67;4.10;;;5.30;99.90;;;;;;12830404;23;20233;-78
2022/01/09 18:32:07;;;;;;;9.10;3.87;;;5.30;99.90;;;;;;12832633;23;20200;-76
2022/01/09 18:37:08;;;;;;;9.43;4.07;;;5.30;99.90;;;;;;12855971;23;20211;-77
2022/01/09 18:42:14;;;;;;;9.90;3.83;;;5.20;99.90;;;;;;12828602;23;20212;-77
2022/01/09 18:47:14;;;;;;;11.03;5.23;;;5.20;99.90;;;;;;12855669;23;20206;-77
2022/01/09 18:52:18;;;;;;;8.73;4.80;;;5.20;99.90;;;;;;12854225;23;20200;-76
2022/01/09 18:57:19;;;;;;;18.47;3.77;;;5.20;99.90;;;;;;12827285;23;20203;-76
2022/01/09 19:02:19;;;;;;;11.90;4.40;;;5.20;99.90;;;;;;12827172;23;20239;-76
2022/01/09 19:07:20;;;;;;;10.23;5.03;;;5.20;99.90;;;;;;12857604;23;20196;-76
2022/01/09 19:12:24;;;;;;;11.70;4.17;;;5.20;99.90;;;;;;12861118;23;20231;-77
2022/01/09 19:17:25;;;;;;;9.90;5.20;;;5.20;99.90;;;;;;12831730;23;20200;-76
2022/01/09 19:22:25;;;;;;;8.47;3.70;;;5.20;99.90;;;;;;12832049;23;20215;-77
2022/01/09 19:27:28;;;;;;;8.33;3.43;;;5.20;99.90;;;;;;12831847;23;20231;-77
2022/01/09 19:32:29;;;;;;;9.23;3.00;;;5.20;99.90;;;;;;12859497;23;20215;-76
2022/01/09 19:37:30;;;;;;;7.43;2.90;;;5.20;99.90;;;;;;12831988;23;20618;-76
2022/01/09 19:42:31;;;;;;;9.03;3.77;;;5.20;99.90;;;;;;12832655;23;20204;-76
2022/01/09 19:47:33;;;;;;;12.10;4.13;;;5.20;99.90;;;;;;12831110;23;20200;-78
2022/01/09 19:52:35;;;;;;;8.13;3.77;;;5.10;99.90;;;;;;12830799;23;20595;-77
2022/01/09 19:57:36;;;;;;;9.33;4.03;;;5.10;99.90;;;;;;12831272;23;20200;-78
2022/01/09 20:02:38;;;;;;;9.93;3.63;;;5.10;99.90;;;;;;12831896;23;20208;-76
2022/01/09 20:07:39;;;;;;;9.07;3.20;;;5.00;99.90;;;;;;12830390;23;20845;-77
2022/01/09 20:12:40;;;;;;;7.07;4.10;;;4.90;99.90;;;;;;12830904;23;20771;-76
2022/01/09 20:17:47;;;;;;;9.80;3.33;;;4.70;99.90;;;;;;12833113;23;20563;-78
2022/01/09 20:22:48;;;;;;;7.83;3.63;;;4.60;99.90;;;;;;12834307;23;20236;-76
2022/01/09 20:27:49;;;;;;;8.90;4.20;;;4.60;99.90;;;;;;12831027;23;20192;-76
2022/01/09 20:32:50;;;;;;;9.73;4.30;;;4.40;99.90;;;;;;12831839;23;20200;-77
2022/01/09 20:37:51;;;;;;;8.40;3.93;;;4.30;99.90;;;;;;12829550;23;20229;-77
2022/01/09 20:42:53;;;;;;;7.27;3.77;;;4.30;99.90;;;;;;12829035;23;20593;-77
2022/01/09 20:47:53;;;;;;;10.53;4.13;;;4.20;99.90;;;;;;12826217;23;20200;-71
2022/01/09 20:52:54;;;;;;;10.67;4.23;;;4.10;99.90;;;;;;12861828;23;20271;-77
2022/01/09 20:57:55;;;;;;;11.73;3.73;;;4.00;99.90;;;;;;12863398;23;20207;-78
2022/01/09 21:02:55;;;;;;;7.50;3.80;;;3.90;99.90;;;;;;12841422;23;20218;-75
2022/01/09 21:08:01;;;;;;;8.03;3.93;;;3.80;99.90;;;;;;12829490;23;20210;-76
2022/01/09 21:13:03;;;;;;;8.43;3.93;;;3.70;99.90;;;;;;12834102;23;20199;-75
2022/01/09 21:18:05;;;;;;;12.27;5.00;;;3.60;99.90;;;;;;12857915;23;20204;-72
2022/01/09 21:23:08;;;;;;;7.27;4.77;;;3.60;99.90;;;;;;12858412;23;20231;-77
2022/01/09 21:28:13;;;;;;;11.63;5.60;;;3.50;99.90;;;;;;12804936;23;20218;-77
2022/01/09 21:33:17;;;;;;;13.70;5.20;;;3.50;99.90;;;;;;12831258;23;20218;-77
2022/01/09 21:38:21;;;;;;;10.63;5.60;;;3.40;99.90;;;;;;12860193;23;20594;-77
2022/01/09 21:43:25;;;;;;;10.63;4.70;;;3.40;99.90;;;;;;12838274;23;20243;-75
2022/01/09 21:48:58;;;;;;;13.43;6.77;;;3.30;99.90;;;;;;12840445;22;20212;-76
2022/01/09 21:54:01;;;;;;;17.57;7.90;;;3.30;99.90;;;;;;12816741;23;20259;-75
2022/01/09 21:59:08;;;;;;;15.63;6.87;;;3.30;99.90;;;;;;12840133;23;20266;-77
2022/01/09 22:14:42;;;;;;;11.13;5.90;;;3.40;99.90;;;;;;12923224;22;20225;-75
2022/01/09 22:19:43;;;;;;;12.10;6.63;;;3.50;99.90;;;;;;12889299;23;20253;-75
2022/01/09 22:24:46;;;;;;;14.00;7.03;;;3.60;99.90;;;;;;12891767;23;20207;-74
2022/01/09 22:29:53;;;;;;;13.00;6.63;;;3.70;99.90;;;;;;12892481;23;20202;-76
2022/01/09 22:35:13;;;;;;;10.30;5.87;;;3.90;99.90;;;;;;12881349;23;20429;-77
2022/01/09 22:45:28;;;;;;;12.90;5.97;;;4.00;99.90;;;;;;12870962;22;20221;-77
2022/01/09 23:05:54;;;;;;;13.90;5.37;;;4.20;99.90;;;;;;12908182;22;20470;-78
2022/01/09 23:11:03;;;;;;;10.97;5.40;;;4.20;99.90;;;;;;12890269;22;20250;-77
2022/01/09 23:21:12;;;;;;;11.63;5.40;;;4.30;99.90;;;;;;12898384;22;20329;-77
2022/01/09 23:26:22;;;;;;;10.60;5.97;;;4.30;99.90;;;;;;12906139;22;20202;-76
2022/01/09 23:31:23;;;;;;;11.73;5.23;;;4.40;99.90;;;;;;12893413;22;20258;-73
2022/01/09 23:36:36;;;;;;;10.97;5.27;;;4.40;99.90;;;;;;12894794;22;20203;-74
2022/01/09 23:41:37;;;;;;;10.40;4.83;;;4.50;99.90;;;;;;12894729;22;20211;-76
2022/01/09 23:46:43;;;;;;;11.57;5.03;;;4.50;99.90;;;;;;12893665;22;20207;-75
2022/01/09 23:51:44;;;;;;;7.60;4.60;;;4.50;99.90;;;;;;12919541;22;20221;-76
2022/01/09 23:56:44;;;;;;;11.27;4.90;;;4.60;99.90;;;;;;12894562;22;20242;-74
